createdAt,value
2018-01-13T00:01:51.811Z,3.04
2018-01-13T00:04:19.214Z,3.11
2018-01-13T00:06:46.607Z,3.08
2018-01-13T00:09:14.014Z,2.92
2018-01-13T00:11:41.408Z,3.07
2018-01-13T00:14:08.803Z,3.13
2018-01-13T00:16:36.223Z,3.04
2018-01-13T00:19:03.633Z,3.08
2018-01-13T00:21:31.030Z,3.12
2018-01-13T00:23:58.446Z,3.05
2018-01-13T00:26:25.837Z,3.02
2018-01-13T00:28:53.242Z,3.10
2018-01-13T00:31:20.644Z,3.17
2018-01-13T00:33:48.063Z,3.19
2018-01-13T00:36:15.489Z,3.19
2018-01-13T00:38:42.894Z,3.14
2018-01-13T00:41:10.317Z,3.11
2018-01-13T00:43:37.714Z,3.00
2018-01-13T00:46:05.123Z,2.93
2018-01-13T00:48:32.514Z,2.98
2018-01-13T00:50:59.928Z,3.01
2018-01-13T00:53:27.319Z,3.02
2018-01-13T00:55:54.827Z,2.96
2018-01-13T00:58:22.217Z,3.17
2018-01-13T01:00:49.639Z,3.11
2018-01-13T01:03:17.039Z,3.05
2018-01-13T01:05:44.556Z,3.11
2018-01-13T01:08:11.952Z,3.02
2018-01-13T01:10:39.350Z,3.02
2018-01-13T01:13:06.791Z,3.09
2018-01-13T01:15:34.181Z,3.14
2018-01-13T01:18:01.570Z,3.10
2018-01-13T01:20:28.995Z,3.22
2018-01-13T01:22:56.379Z,3.21
2018-01-13T01:25:23.903Z,3.16
2018-01-13T01:27:51.294Z,3.20
2018-01-13T01:30:18.704Z,3.28
2018-01-13T01:32:46.106Z,3.25
2018-01-13T01:35:13.560Z,3.11
2018-01-13T01:37:40.907Z,3.22
2018-01-13T01:40:08.300Z,3.30
2018-01-13T01:42:35.722Z,3.26
2018-01-13T01:45:03.130Z,3.12
2018-01-13T01:47:30.591Z,3.10
2018-01-13T01:49:58.008Z,3.05
2018-01-13T01:52:25.415Z,3.13
2018-01-13T01:54:52.794Z,3.10
2018-01-13T01:57:20.306Z,3.00
2018-01-13T01:59:47.707Z,3.07
2018-01-13T02:02:15.106Z,3.00
2018-01-13T02:04:42.503Z,3.05
2018-01-13T02:07:09.909Z,3.04
2018-01-13T02:09:37.326Z,3.05
2018-01-13T02:12:04.736Z,3.16
2018-01-13T02:14:32.131Z,3.22
2018-01-13T02:16:59.537Z,3.22
2018-01-13T02:19:26.926Z,3.18
2018-01-13T02:21:54.330Z,3.00
2018-01-13T02:24:21.713Z,3.01
2018-01-13T02:26:49.141Z,2.98
2018-01-13T02:29:16.569Z,2.98
2018-01-13T02:31:43.970Z,3.10
2018-01-13T02:34:11.366Z,3.13
2018-01-13T02:36:38.760Z,3.07
2018-01-13T02:39:06.170Z,3.20
2018-01-13T02:41:33.566Z,3.21
2018-01-13T02:44:01.038Z,3.05
2018-01-13T02:46:28.449Z,3.11
2018-01-13T02:48:55.846Z,3.16
2018-01-13T02:51:23.237Z,3.17
2018-01-13T02:53:50.642Z,3.17
2018-01-13T02:56:18.058Z,3.34
2018-01-13T02:58:45.462Z,3.37
2018-01-13T03:01:12.871Z,3.37
2018-01-13T03:03:40.277Z,3.29
2018-01-13T03:06:07.669Z,3.33
2018-01-13T03:08:35.074Z,3.20
2018-01-13T03:11:02.471Z,3.29
2018-01-13T03:13:29.892Z,3.24
2018-01-13T03:15:57.282Z,3.32
2018-01-13T03:18:24.700Z,3.43
2018-01-13T03:20:52.113Z,3.54
2018-01-13T03:23:19.518Z,3.26
2018-01-13T03:25:46.922Z,3.15
2018-01-13T03:28:14.313Z,3.16
2018-01-13T03:30:41.723Z,3.17
2018-01-13T03:33:09.138Z,3.25
2018-01-13T03:35:36.566Z,3.28
2018-01-13T03:38:03.958Z,3.39
2018-01-13T03:40:31.422Z,3.44
2018-01-13T03:42:58.814Z,3.40
2018-01-13T03:45:26.226Z,3.21
2018-01-13T03:47:53.631Z,3.32
2018-01-13T03:50:21.053Z,3.19
2018-01-13T03:52:48.450Z,3.22
2018-01-13T03:55:15.854Z,3.16
2018-01-13T03:57:43.246Z,3.23
2018-01-13T04:00:10.650Z,3.18
2018-01-13T04:02:38.055Z,3.13
2018-01-13T04:05:05.479Z,3.14
2018-01-13T04:07:32.883Z,3.08
2018-01-13T04:10:00.398Z,3.05
2018-01-13T04:12:27.814Z,3.06
2018-01-13T04:14:55.212Z,3.17
2018-01-13T04:17:22.614Z,3.26
2018-01-13T04:19:50.042Z,3.16
2018-01-13T04:22:17.457Z,3.14
2018-01-13T04:24:44.849Z,3.15
2018-01-13T04:27:12.242Z,3.11
2018-01-13T04:29:39.652Z,3.28
2018-01-13T04:32:07.733Z,3.38
2018-01-13T04:34:35.170Z,3.24
2018-01-13T04:37:02.582Z,3.23
2018-01-13T04:39:30.015Z,3.23
2018-01-13T04:41:57.398Z,3.12
2018-01-13T04:44:24.889Z,3.29
2018-01-13T04:46:52.310Z,3.34
2018-01-13T04:49:19.715Z,3.42
2018-01-13T04:51:47.152Z,3.38
2018-01-13T04:54:14.541Z,3.22
2018-01-13T04:56:41.941Z,3.30
2018-01-13T04:59:09.343Z,3.18
2018-01-13T05:01:36.757Z,3.28
2018-01-13T05:04:04.163Z,3.30
2018-01-13T05:06:31.577Z,3.31
2018-01-13T05:08:58.962Z,3.29
2018-01-13T05:11:26.362Z,3.24
2018-01-13T05:13:53.759Z,3.16
2018-01-13T05:16:21.166Z,3.29
2018-01-13T05:18:48.570Z,3.12
2018-01-13T05:21:15.999Z,3.06
2018-01-13T05:23:43.390Z,3.00
2018-01-13T05:26:10.803Z,3.06
2018-01-13T05:28:38.195Z,3.12
2018-01-13T05:31:05.615Z,3.07
2018-01-13T05:33:33.064Z,3.13
2018-01-13T05:36:00.409Z,3.07
2018-01-13T05:38:27.824Z,3.18
2018-01-13T05:40:55.222Z,3.20
2018-01-13T05:43:22.625Z,3.09
2018-01-13T05:45:50.827Z,3.14
2018-01-13T05:48:18.232Z,3.15
2018-01-13T05:50:45.921Z,3.14
2018-01-13T05:53:13.343Z,3.16
2018-01-13T05:55:40.750Z,3.12
2018-01-13T05:58:08.154Z,3.07
2018-01-13T06:00:35.546Z,3.17
2018-01-13T06:03:02.950Z,3.22
2018-01-13T06:05:30.359Z,3.16
2018-01-13T06:07:57.742Z,3.16
2018-01-13T06:10:25.237Z,3.17
2018-01-13T06:12:52.642Z,3.17
2018-01-13T06:15:20.142Z,3.09
2018-01-13T06:17:47.598Z,3.10
2018-01-13T06:20:15.046Z,3.06
2018-01-13T06:22:42.451Z,3.04
2018-01-13T06:25:09.846Z,3.12
2018-01-13T06:27:37.250Z,2.99
2018-01-13T06:30:04.689Z,3.05
2018-01-13T06:32:32.098Z,3.17
2018-01-13T06:34:59.514Z,3.27
2018-01-13T06:37:26.910Z,3.31
2018-01-13T06:39:54.602Z,3.10
2018-01-13T06:42:21.990Z,3.08
2018-01-13T06:44:49.409Z,3.09
2018-01-13T06:47:16.797Z,3.09
2018-01-13T06:49:44.231Z,3.07
2018-01-13T06:52:11.650Z,2.93
2018-01-13T06:54:39.066Z,2.87
2018-01-13T06:57:06.462Z,2.93
2018-01-13T06:59:33.959Z,2.87
2018-01-13T07:02:01.437Z,2.80
2018-01-13T07:04:28.854Z,2.87
2018-01-13T07:06:56.251Z,2.91
2018-01-13T07:09:23.649Z,3.01
2018-01-13T07:11:51.043Z,2.98
2018-01-13T07:14:18.474Z,3.02
2018-01-13T07:16:45.854Z,3.03
2018-01-13T07:19:13.258Z,2.99
2018-01-13T07:21:40.786Z,3.10
2018-01-13T07:24:08.186Z,3.13
2018-01-13T07:26:35.635Z,3.08
2018-01-13T07:29:03.051Z,3.08
2018-01-13T07:31:30.463Z,3.07
2018-01-13T07:33:57.854Z,3.09
2018-01-13T07:36:25.250Z,3.19
2018-01-13T07:38:52.656Z,3.27
2018-01-13T07:41:20.054Z,3.19
2018-01-13T07:43:47.552Z,3.04
2018-01-13T07:46:14.934Z,3.10
2018-01-13T07:48:42.338Z,3.02
2018-01-13T07:51:09.746Z,3.01
2018-01-13T07:53:37.144Z,2.96
2018-01-13T07:56:06.295Z,2.96
2018-01-13T07:58:33.733Z,2.84
2018-01-13T08:01:01.138Z,2.92
2018-01-13T08:03:28.561Z,2.87
2018-01-13T08:05:55.944Z,2.97
2018-01-13T08:08:23.333Z,2.99
2018-01-13T08:10:50.731Z,2.92
2018-01-13T08:13:18.120Z,3.04
2018-01-13T08:15:45.525Z,3.03
2018-01-13T08:18:12.948Z,3.02
2018-01-13T08:20:40.355Z,2.95
2018-01-13T08:23:07.760Z,3.04
2018-01-13T08:25:35.160Z,3.04
2018-01-13T08:28:02.563Z,2.92
2018-01-13T08:30:29.966Z,2.99
2018-01-13T08:32:57.366Z,2.97
2018-01-13T08:35:24.850Z,3.03
2018-01-13T08:37:52.247Z,3.12
2018-01-13T08:40:19.671Z,3.12
2018-01-13T08:42:47.046Z,3.13
2018-01-13T08:45:14.478Z,3.06
2018-01-13T08:47:41.898Z,3.14
2018-01-13T08:50:09.295Z,3.09
2018-01-13T08:52:36.699Z,3.04
2018-01-13T08:55:04.139Z,3.06
2018-01-13T08:57:31.532Z,3.01
2018-01-13T08:59:58.927Z,2.95
2018-01-13T09:02:26.332Z,3.04
2018-01-13T09:04:53.742Z,3.01
2018-01-13T09:07:21.147Z,2.98
2018-01-13T09:09:48.533Z,2.97
2018-01-13T09:12:15.991Z,2.93
2018-01-13T09:14:43.377Z,2.96
2018-01-13T09:17:10.782Z,3.06
2018-01-13T09:19:38.175Z,2.93
2018-01-13T09:22:05.579Z,2.86
2018-01-13T09:24:32.975Z,2.94
2018-01-13T09:27:00.382Z,2.89
2018-01-13T09:29:27.777Z,2.91
2018-01-13T09:31:55.185Z,2.92
2018-01-13T09:34:22.575Z,3.00
2018-01-13T09:36:50.006Z,2.89
2018-01-13T09:39:17.406Z,2.81
2018-01-13T09:41:44.806Z,2.82
2018-01-13T09:44:12.202Z,2.79
2018-01-13T09:46:39.630Z,2.77
2018-01-13T09:49:07.059Z,2.73
2018-01-13T09:51:34.454Z,2.76
2018-01-13T09:54:01.861Z,2.80
2018-01-13T09:56:29.254Z,2.83
2018-01-13T09:58:56.662Z,2.87
2018-01-13T10:01:24.067Z,2.85
2018-01-13T10:03:51.498Z,2.81
2018-01-13T10:06:18.893Z,2.80
2018-01-13T10:08:46.294Z,2.69
2018-01-13T10:11:13.694Z,2.71
2018-01-13T10:13:41.094Z,2.79
2018-01-13T10:16:08.562Z,2.68
2018-01-13T10:18:35.966Z,2.74
2018-01-13T10:21:03.378Z,2.77
2018-01-13T10:23:31.603Z,2.79
2018-01-13T10:25:59.030Z,2.77
2018-01-13T10:28:26.451Z,2.73
2018-01-13T10:30:53.853Z,2.64
2018-01-13T10:33:21.251Z,2.64
2018-01-13T10:35:48.663Z,2.61
2018-01-13T10:38:16.093Z,2.71
2018-01-13T10:40:43.478Z,2.73
2018-01-13T10:43:10.899Z,2.86
2018-01-13T10:45:38.323Z,3.00
2018-01-13T10:48:05.723Z,3.03
2018-01-13T10:50:33.132Z,2.88
2018-01-13T10:53:00.514Z,2.91
2018-01-13T10:55:27.930Z,2.90
2018-01-13T10:57:55.383Z,3.00
2018-01-13T11:00:22.792Z,2.95
2018-01-13T11:02:50.183Z,2.86
2018-01-13T11:05:17.595Z,2.98
2018-01-13T11:07:45.131Z,3.14
2018-01-13T11:10:12.584Z,3.11
2018-01-13T11:12:39.945Z,3.04
2018-01-13T11:15:07.342Z,3.08
2018-01-13T11:17:34.754Z,2.89
2018-01-13T11:20:02.146Z,2.91
2018-01-13T11:22:29.550Z,2.88
2018-01-13T11:24:56.970Z,2.84
2018-01-13T11:27:24.409Z,2.85
2018-01-13T11:29:51.804Z,2.85
2018-01-13T11:32:19.212Z,2.74
2018-01-13T11:34:46.618Z,2.71
2018-01-13T11:37:14.030Z,2.75
2018-01-13T11:39:41.425Z,2.87
2018-01-13T11:42:08.817Z,2.94
2018-01-13T11:44:36.234Z,3.02
2018-01-13T11:47:03.629Z,2.95
2018-01-13T11:49:31.023Z,2.84
2018-01-13T11:51:58.430Z,2.78
2018-01-13T11:54:25.848Z,2.81
2018-01-13T11:56:53.240Z,2.90
2018-01-13T11:59:20.654Z,2.95
2018-01-13T12:01:48.076Z,2.73
2018-01-13T12:04:15.466Z,2.64
2018-01-13T12:06:42.870Z,2.74
2018-01-13T12:09:10.267Z,2.80
2018-01-13T12:11:37.669Z,2.86
2018-01-13T12:14:05.090Z,2.85
2018-01-13T12:16:32.508Z,2.84
2018-01-13T12:18:59.927Z,2.83
2018-01-13T12:21:27.330Z,2.90
2018-01-13T12:23:54.726Z,2.73
2018-01-13T12:26:22.130Z,2.80
2018-01-13T12:28:49.535Z,2.76
2018-01-13T12:31:16.935Z,2.68
2018-01-13T12:33:44.334Z,2.72
2018-01-13T12:36:11.759Z,2.66
2018-01-13T12:38:39.194Z,2.44
2018-01-13T12:41:06.602Z,2.51
2018-01-13T12:43:34.025Z,2.65
2018-01-13T12:46:01.554Z,2.68
2018-01-13T12:48:28.942Z,2.82
2018-01-13T12:50:56.346Z,2.89
2018-01-13T12:53:23.760Z,2.67
2018-01-13T12:55:51.167Z,2.59
2018-01-13T12:58:18.582Z,2.54
2018-01-13T13:00:46.134Z,2.56
2018-01-13T13:03:13.544Z,2.58
2018-01-13T13:05:40.983Z,2.68
2018-01-13T13:08:08.383Z,2.60
2018-01-13T13:10:35.782Z,2.64
2018-01-13T13:13:03.191Z,2.63
2018-01-13T13:15:30.593Z,2.66
2018-01-13T13:17:58.000Z,2.63
2018-01-13T13:20:25.401Z,2.43
2018-01-13T13:22:52.815Z,2.32
2018-01-13T13:25:20.223Z,2.22
2018-01-13T13:27:47.634Z,2.41
2018-01-13T13:30:15.043Z,2.48
2018-01-13T13:32:42.493Z,2.59
2018-01-13T13:35:09.898Z,2.55
2018-01-13T13:37:37.296Z,2.49
2018-01-13T13:40:04.995Z,2.60
2018-01-13T13:42:32.395Z,2.37
2018-01-13T13:44:59.791Z,2.25
2018-01-13T13:47:27.211Z,2.31
2018-01-13T13:49:54.690Z,2.38
2018-01-13T13:52:22.082Z,2.49
2018-01-13T13:54:49.503Z,2.55
2018-01-13T13:57:16.914Z,2.51
2018-01-13T13:59:50.347Z,2.44
2018-01-13T14:02:11.727Z,2.40
2018-01-13T14:04:39.131Z,2.40
2018-01-13T14:07:06.539Z,2.47
2018-01-13T14:09:33.938Z,2.47
2018-01-13T14:12:01.423Z,2.41
2018-01-13T14:14:28.831Z,2.45
2018-01-13T14:16:56.230Z,2.51
2018-01-13T14:19:23.622Z,2.54
2018-01-13T14:21:51.030Z,2.45
2018-01-13T14:24:18.447Z,2.41
2018-01-13T14:26:45.995Z,2.43
2018-01-13T14:29:13.398Z,2.36
2018-01-13T14:31:40.808Z,2.49
2018-01-13T14:34:08.206Z,2.58
2018-01-13T14:36:35.698Z,2.40
2018-01-13T14:39:03.095Z,2.24
2018-01-13T14:41:30.506Z,2.23
2018-01-13T14:43:57.908Z,2.30
2018-01-13T14:46:25.298Z,2.28
2018-01-13T14:48:52.705Z,2.33
2018-01-13T14:51:20.135Z,2.26
2018-01-13T14:53:47.522Z,2.28
2018-01-13T14:56:14.934Z,2.22
2018-01-13T14:58:42.338Z,2.29
2018-01-13T15:01:09.741Z,2.32
2018-01-13T15:03:37.154Z,2.40
2018-01-13T15:06:04.557Z,2.31
2018-01-13T15:08:31.970Z,2.40
2018-01-13T15:10:59.359Z,2.43
2018-01-13T15:13:26.762Z,2.40
2018-01-13T15:15:54.161Z,2.32
2018-01-13T15:18:21.577Z,2.31
2018-01-13T15:20:48.958Z,2.40
2018-01-13T15:23:16.362Z,2.20
2018-01-13T15:25:43.870Z,2.11
2018-01-13T15:28:11.280Z,2.18
2018-01-13T15:30:38.698Z,2.12
2018-01-13T15:33:06.106Z,2.15
2018-01-13T15:35:33.516Z,2.06
2018-01-13T15:38:00.931Z,1.86
2018-01-13T15:40:28.338Z,1.83
2018-01-13T15:42:55.743Z,1.96
2018-01-13T15:45:23.144Z,1.99
2018-01-13T15:47:50.557Z,1.92
2018-01-13T15:50:17.935Z,1.92
2018-01-13T15:52:45.347Z,1.97
2018-01-13T15:55:12.759Z,1.95
2018-01-13T15:57:40.167Z,1.86
2018-01-13T16:00:07.562Z,1.87
2018-01-13T16:02:34.995Z,1.86
2018-01-13T16:05:02.386Z,1.96
2018-01-13T16:07:30.307Z,1.96
2018-01-13T16:09:57.698Z,1.92
2018-01-13T16:12:25.094Z,1.90
2018-01-13T16:14:52.494Z,1.96
2018-01-13T16:17:19.950Z,1.99
2018-01-13T16:19:47.334Z,1.95
2018-01-13T16:22:14.733Z,1.95
2018-01-13T16:24:42.118Z,2.05
2018-01-13T16:27:09.562Z,2.10
2018-01-13T16:29:36.959Z,2.09
2018-01-13T16:32:04.376Z,1.99
2018-01-13T16:34:31.766Z,1.88
2018-01-13T16:36:59.279Z,1.88
2018-01-13T16:39:26.687Z,1.89
2018-01-13T16:41:54.102Z,2.02
2018-01-13T16:44:21.497Z,1.99
2018-01-13T16:46:48.914Z,1.87
2018-01-13T16:49:16.311Z,1.91
2018-01-13T16:51:43.699Z,1.93
2018-01-13T16:54:11.098Z,1.91
2018-01-13T16:56:38.537Z,1.79
2018-01-13T16:59:05.903Z,1.75
2018-01-13T17:01:33.294Z,1.67
2018-01-13T17:04:00.695Z,1.54
2018-01-13T17:06:28.095Z,1.56
2018-01-13T17:08:55.527Z,1.59
2018-01-13T17:11:22.918Z,1.57
2018-01-13T17:13:51.086Z,1.56
2018-01-13T17:16:18.608Z,1.53
2018-01-13T17:18:46.009Z,1.58
2018-01-13T17:21:13.399Z,1.62
2018-01-13T17:23:40.795Z,1.61
2018-01-13T17:26:08.190Z,1.56
2018-01-13T17:28:35.679Z,1.52
2018-01-13T17:31:03.068Z,1.53
2018-01-13T17:33:30.469Z,1.53
2018-01-13T17:35:57.861Z,1.57
2018-01-13T17:38:25.266Z,1.55
2018-01-13T17:40:52.666Z,1.44
2018-01-13T17:43:20.074Z,1.35
2018-01-13T17:45:47.470Z,1.25
2018-01-13T17:48:14.955Z,1.39
2018-01-13T17:50:42.346Z,1.43
2018-01-13T17:53:09.755Z,1.42
2018-01-13T17:55:37.141Z,1.39
2018-01-13T17:58:04.538Z,1.40
2018-01-13T18:00:31.925Z,1.35
2018-01-13T18:03:00.149Z,1.25
2018-01-13T18:05:27.655Z,1.28
2018-01-13T18:07:55.050Z,1.47
2018-01-13T18:10:22.446Z,1.34
2018-01-13T18:12:49.876Z,1.37
2018-01-13T18:15:17.385Z,1.32
2018-01-13T18:17:44.778Z,1.23
2018-01-13T18:20:12.178Z,1.22
2018-01-13T18:22:39.583Z,1.23
2018-01-13T18:25:07.059Z,1.18
2018-01-13T18:27:34.447Z,1.14
2018-01-13T18:30:01.858Z,1.01
2018-01-13T18:32:29.291Z,1.01
2018-01-13T18:34:56.679Z,1.04
2018-01-13T18:37:24.088Z,0.99
2018-01-13T18:39:51.507Z,1.10
2018-01-13T18:42:18.903Z,1.15
2018-01-13T18:47:13.019Z,0.99
2018-01-13T18:49:40.425Z,1.00
2018-01-13T18:52:07.822Z,1.08
2018-01-13T18:54:35.249Z,1.02
2018-01-13T18:57:02.650Z,0.87
2018-01-13T18:59:30.047Z,0.91
2018-01-13T19:01:57.443Z,0.91
2018-01-13T19:04:24.843Z,0.96
2018-01-13T19:06:52.246Z,0.86
2018-01-13T19:09:19.703Z,0.79
2018-01-13T19:11:47.097Z,0.81
2018-01-13T19:14:14.503Z,0.94
2018-01-13T19:16:41.898Z,0.87
2018-01-13T19:19:09.305Z,0.89
2018-01-13T19:21:36.698Z,1.00
2018-01-13T19:24:04.106Z,0.94
2018-01-13T19:26:31.493Z,1.01
2018-01-13T19:28:58.925Z,1.04
2018-01-13T19:31:26.329Z,0.88
2018-01-13T19:33:53.741Z,0.85
2018-01-13T19:36:21.130Z,0.97
2018-01-13T19:38:48.526Z,0.86
2018-01-13T19:41:15.950Z,0.90
2018-01-13T19:43:43.364Z,0.84
2018-01-13T19:46:10.770Z,0.88
2018-01-13T19:48:38.177Z,0.85
2018-01-13T19:51:05.580Z,0.85
2018-01-13T19:53:32.979Z,0.92
2018-01-13T19:56:00.383Z,0.85
2018-01-13T19:58:27.787Z,0.91
2018-01-13T20:00:55.178Z,0.86
2018-01-13T20:03:22.619Z,0.89
2018-01-13T20:05:50.015Z,0.91
2018-01-13T20:08:17.414Z,0.91
2018-01-13T20:10:44.811Z,0.90
2018-01-13T20:13:12.218Z,0.92
2018-01-13T20:15:39.619Z,0.90
2018-01-13T20:18:07.015Z,0.90
2018-01-13T20:20:34.422Z,0.90
2018-01-13T20:23:01.834Z,0.86
2018-01-13T20:25:29.231Z,0.97
2018-01-13T20:27:56.703Z,0.91
2018-01-13T20:30:24.095Z,0.96
2018-01-13T20:32:51.484Z,0.91
2018-01-13T20:35:18.886Z,0.88
2018-01-13T20:37:46.301Z,0.87
2018-01-13T20:40:13.702Z,0.87
2018-01-13T20:42:41.107Z,0.94
2018-01-13T20:45:08.506Z,0.98
2018-01-13T20:47:35.910Z,0.96
2018-01-13T20:50:03.344Z,0.95
2018-01-13T20:52:30.738Z,0.87
2018-01-13T20:54:58.227Z,0.82
2018-01-13T20:57:25.620Z,0.83
2018-01-13T20:59:53.067Z,0.84
2018-01-13T21:02:20.458Z,0.92
2018-01-13T21:04:47.858Z,0.86
2018-01-13T21:07:15.272Z,0.92
2018-01-13T21:09:42.681Z,1.05
2018-01-13T21:12:10.062Z,0.93
2018-01-13T21:14:37.469Z,0.75
2018-01-13T21:17:04.866Z,0.67
2018-01-13T21:19:32.274Z,0.67
2018-01-13T21:21:59.678Z,0.60
2018-01-13T21:24:27.082Z,0.63
2018-01-13T21:26:54.478Z,0.56
2018-01-13T21:29:21.898Z,0.58
2018-01-13T21:31:49.298Z,0.63
2018-01-13T21:34:16.694Z,0.65
2018-01-13T21:36:44.092Z,0.63
2018-01-13T21:39:11.490Z,0.56
2018-01-13T21:41:38.899Z,0.61
2018-01-13T21:44:06.318Z,0.63
2018-01-13T21:46:33.703Z,0.63
2018-01-13T21:49:01.103Z,0.67
2018-01-13T21:51:28.508Z,0.72
2018-01-13T21:53:55.927Z,0.58
2018-01-13T21:56:23.308Z,0.62
2018-01-13T21:58:50.740Z,0.65
2018-01-13T22:01:18.157Z,0.67
2018-01-13T22:03:45.592Z,0.64
2018-01-13T22:06:12.980Z,0.53
2018-01-13T22:08:40.374Z,0.57
2018-01-13T22:11:07.768Z,0.76
2018-01-13T22:13:35.186Z,0.80
2018-01-13T22:16:02.574Z,0.81
2018-01-13T22:18:29.995Z,0.82
2018-01-13T22:20:57.451Z,0.83
2018-01-13T22:23:24.842Z,0.75
2018-01-13T22:25:52.280Z,0.85
2018-01-13T22:28:19.715Z,0.72
2018-01-13T22:30:47.190Z,0.70
2018-01-13T22:33:14.619Z,0.70
2018-01-13T22:35:42.024Z,0.69
2018-01-13T22:38:09.427Z,0.80
2018-01-13T22:40:36.850Z,0.83
2018-01-13T22:43:04.311Z,0.79
2018-01-13T22:45:31.720Z,0.79
2018-01-13T22:47:59.114Z,0.76
2018-01-13T22:50:26.554Z,0.79
2018-01-13T22:52:53.974Z,0.74
2018-01-13T22:55:21.374Z,0.82
2018-01-13T22:57:48.808Z,0.88
2018-01-13T23:00:16.212Z,0.94
2018-01-13T23:02:43.635Z,0.96
2018-01-13T23:05:11.199Z,0.94
2018-01-13T23:07:38.590Z,0.79
2018-01-13T23:10:06.004Z,0.90
2018-01-13T23:12:33.398Z,0.95
2018-01-13T23:15:00.803Z,0.83
2018-01-13T23:17:28.211Z,0.87
2018-01-13T23:19:55.718Z,0.96
2018-01-13T23:22:23.118Z,0.90
2018-01-13T23:24:50.566Z,0.85
2018-01-13T23:27:21.907Z,0.96
2018-01-13T23:29:49.306Z,0.95
2018-01-13T23:32:16.695Z,1.01
2018-01-13T23:34:44.146Z,0.89
2018-01-13T23:37:11.538Z,1.00
2018-01-13T23:39:38.991Z,0.93
2018-01-13T23:42:06.395Z,1.01
2018-01-13T23:44:33.794Z,0.90
2018-01-13T23:47:01.199Z,0.88
2018-01-13T23:49:28.594Z,0.99
2018-01-13T23:51:55.990Z,1.04
2018-01-13T23:54:23.389Z,0.95
2018-01-13T23:56:50.807Z,0.92
2018-01-13T23:59:18.214Z,0.96
